Brownvale, Canada
Current Conditions -  °F | °C
As of 9:06 AM on Thursday 23 Oct 2014 (Local Time) from CYPE Reporting Station
Light Rain Light Rain  
Wind Chill: 28°   Ceiling: 5000
Heat Index: 36°   Visibility: 15mi
Dew Point: 32°   Wind: 10mph
Humidity: 87%   Direction: 350°N
Pressure: 29.46"   Gusts: NA
Location:  56.12°N, 117.9°W
Report Text: CYPE 231506Z 35009KT 15SM -RA FEW002 BKN050 OVC080 02/00 A2946 RMK SF1SC5AC3 SF TR PCPN VRY LGT SLP998
Loading
Personal Weather Stations






























Interactive Weather Map
Tropical Storm Tracking
New forecast layout! Learn more

10-Day Weather Forecast

Advertisements
Track Severe Weather on mobile